sensor_id;sensor_type;location;lat;lon;timestamp;P1;durP1;ratioP1;P2;durP2;ratioP2
78372;SDS011;67656;52.074;4.758;2023-06-01T00:04:20;8.82;;;3.58;;
78372;SDS011;67656;52.074;4.758;2023-06-01T00:09:24;10.48;;;3.80;;
78372;SDS011;67656;52.074;4.758;2023-06-01T00:14:24;11.15;;;3.92;;
78372;SDS011;67656;52.074;4.758;2023-06-01T00:19:25;9.57;;;4.18;;
78372;SDS011;67656;52.074;4.758;2023-06-01T00:24:27;10.85;;;3.72;;
78372;SDS011;67656;52.074;4.758;2023-06-01T00:29:30;9.38;;;4.00;;
78372;SDS011;67656;52.074;4.758;2023-06-01T00:34:31;12.40;;;3.83;;
78372;SDS011;67656;52.074;4.758;2023-06-01T00:39:35;7.50;;;3.42;;
78372;SDS011;67656;52.074;4.758;2023-06-01T00:44:40;10.85;;;3.85;;
78372;SDS011;67656;52.074;4.758;2023-06-01T00:49:46;12.47;;;3.83;;
78372;SDS011;67656;52.074;4.758;2023-06-01T00:54:55;12.00;;;3.83;;
78372;SDS011;67656;52.074;4.758;2023-06-01T00:59:56;14.32;;;4.15;;
78372;SDS011;67656;52.074;4.758;2023-06-01T01:04:57;14.18;;;3.95;;
78372;SDS011;67656;52.074;4.758;2023-06-01T01:09:59;12.82;;;3.97;;
78372;SDS011;67656;52.074;4.758;2023-06-01T01:15:05;14.65;;;3.40;;
78372;SDS011;67656;52.074;4.758;2023-06-01T01:20:13;13.90;;;4.10;;
78372;SDS011;67656;52.074;4.758;2023-06-01T01:25:21;11.65;;;4.13;;
78372;SDS011;67656;52.074;4.758;2023-06-01T01:30:37;10.88;;;4.45;;
78372;SDS011;67656;52.074;4.758;2023-06-01T01:35:43;11.35;;;3.63;;
78372;SDS011;67656;52.074;4.758;2023-06-01T01:40:46;9.40;;;3.40;;
78372;SDS011;67656;52.074;4.758;2023-06-01T01:45:47;10.70;;;3.92;;
78372;SDS011;67656;52.074;4.758;2023-06-01T01:56:27;10.05;;;3.60;;
78372;SDS011;67656;52.074;4.758;2023-06-01T02:01:34;11.23;;;3.92;;
78372;SDS011;67656;52.074;4.758;2023-06-01T02:06:36;11.38;;;4.05;;
78372;SDS011;67656;52.074;4.758;2023-06-01T02:11:39;11.40;;;4.07;;
78372;SDS011;67656;52.074;4.758;2023-06-01T02:16:40;13.32;;;4.10;;
78372;SDS011;67656;52.074;4.758;2023-06-01T02:21:43;10.75;;;4.05;;
78372;SDS011;67656;52.074;4.758;2023-06-01T02:26:47;11.57;;;3.85;;
78372;SDS011;67656;52.074;4.758;2023-06-01T02:31:50;12.77;;;3.95;;
78372;SDS011;67656;52.074;4.758;2023-06-01T02:36:57;9.77;;;4.28;;
78372;SDS011;67656;52.074;4.758;2023-06-01T02:41:58;11.73;;;4.07;;
78372;SDS011;67656;52.074;4.758;2023-06-01T02:46:59;12.65;;;4.60;;
78372;SDS011;67656;52.074;4.758;2023-06-01T02:52:00;10.45;;;4.20;;
78372;SDS011;67656;52.074;4.758;2023-06-01T02:57:01;12.85;;;4.28;;
78372;SDS011;67656;52.074;4.758;2023-06-01T03:02:15;10.50;;;3.90;;
78372;SDS011;67656;52.074;4.758;2023-06-01T03:07:16;10.80;;;4.30;;
78372;SDS011;67656;52.074;4.758;2023-06-01T03:12:28;10.18;;;3.60;;
78372;SDS011;67656;52.074;4.758;2023-06-01T03:17:28;14.75;;;4.22;;
78372;SDS011;67656;52.074;4.758;2023-06-01T03:22:29;12.05;;;4.00;;
78372;SDS011;67656;52.074;4.758;2023-06-01T03:27:30;11.73;;;4.03;;
78372;SDS011;67656;52.074;4.758;2023-06-01T03:32:31;11.00;;;3.40;;
78372;SDS011;67656;52.074;4.758;2023-06-01T03:37:37;12.88;;;3.10;;
78372;SDS011;67656;52.074;4.758;2023-06-01T03:42:53;10.38;;;4.00;;
78372;SDS011;67656;52.074;4.758;2023-06-01T03:48:00;10.05;;;2.80;;
78372;SDS011;67656;52.074;4.758;2023-06-01T03:53:06;10.52;;;3.72;;
78372;SDS011;67656;52.074;4.758;2023-06-01T03:58:08;11.40;;;3.55;;
78372;SDS011;67656;52.074;4.758;2023-06-01T04:03:09;12.50;;;3.47;;
78372;SDS011;67656;52.074;4.758;2023-06-01T04:08:10;9.02;;;3.13;;
78372;SDS011;67656;52.074;4.758;2023-06-01T04:13:14;11.95;;;3.60;;
78372;SDS011;67656;52.074;4.758;2023-06-01T04:18:26;9.13;;;3.10;;
78372;SDS011;67656;52.074;4.758;2023-06-01T04:23:29;12.10;;;4.25;;
78372;SDS011;67656;52.074;4.758;2023-06-01T04:28:31;11.95;;;3.75;;
78372;SDS011;67656;52.074;4.758;2023-06-01T04:33:32;11.20;;;3.88;;
78372;SDS011;67656;52.074;4.758;2023-06-01T04:38:33;10.07;;;4.07;;
78372;SDS011;67656;52.074;4.758;2023-06-01T04:43:33;10.80;;;4.18;;
78372;SDS011;67656;52.074;4.758;2023-06-01T04:48:36;10.27;;;4.65;;
78372;SDS011;67656;52.074;4.758;2023-06-01T04:53:40;11.20;;;4.15;;
78372;SDS011;67656;52.074;4.758;2023-06-01T04:58:43;12.98;;;4.18;;
78372;SDS011;67656;52.074;4.758;2023-06-01T05:03:49;11.57;;;4.30;;
78372;SDS011;67656;52.074;4.758;2023-06-01T05:09:05;11.95;;;4.25;;
78372;SDS011;67656;52.074;4.758;2023-06-01T05:14:16;16.53;;;4.40;;
78372;SDS011;67656;52.074;4.758;2023-06-01T05:19:24;10.60;;;4.28;;
78372;SDS011;67656;52.074;4.758;2023-06-01T05:25:04;10.02;;;3.70;;
78372;SDS011;67656;52.074;4.758;2023-06-01T05:36:53;16.30;;;4.30;;
78372;SDS011;67656;52.074;4.758;2023-06-01T05:41:59;9.10;;;3.50;;
78372;SDS011;67656;52.074;4.758;2023-06-01T05:47:09;11.20;;;4.00;;
78372;SDS011;67656;52.074;4.758;2023-06-01T05:52:09;12.20;;;4.18;;
78372;SDS011;67656;52.074;4.758;2023-06-01T05:57:17;10.35;;;4.18;;
78372;SDS011;67656;52.074;4.758;2023-06-01T06:02:18;13.27;;;4.60;;
78372;SDS011;67656;52.074;4.758;2023-06-01T06:07:32;9.55;;;4.00;;
78372;SDS011;67656;52.074;4.758;2023-06-01T06:12:35;10.37;;;3.97;;
78372;SDS011;67656;52.074;4.758;2023-06-01T06:17:38;12.73;;;3.97;;
78372;SDS011;67656;52.074;4.758;2023-06-01T06:22:44;8.93;;;3.05;;
78372;SDS011;67656;52.074;4.758;2023-06-01T06:27:45;12.65;;;3.70;;
78372;SDS011;67656;52.074;4.758;2023-06-01T06:32:45;10.20;;;3.78;;
78372;SDS011;67656;52.074;4.758;2023-06-01T06:37:46;11.10;;;3.72;;
78372;SDS011;67656;52.074;4.758;2023-06-01T06:42:46;11.50;;;3.35;;
78372;SDS011;67656;52.074;4.758;2023-06-01T06:47:47;7.50;;;3.30;;
78372;SDS011;67656;52.074;4.758;2023-06-01T06:52:47;8.63;;;3.15;;
78372;SDS011;67656;52.074;4.758;2023-06-01T06:57:48;7.07;;;2.60;;
78372;SDS011;67656;52.074;4.758;2023-06-01T07:02:51;8.10;;;3.30;;
78372;SDS011;67656;52.074;4.758;2023-06-01T07:07:51;7.00;;;3.60;;
78372;SDS011;67656;52.074;4.758;2023-06-01T07:12:54;6.35;;;2.83;;
78372;SDS011;67656;52.074;4.758;2023-06-01T07:17:54;8.27;;;3.28;;
78372;SDS011;67656;52.074;4.758;2023-06-01T07:22:55;10.73;;;3.20;;
78372;SDS011;67656;52.074;4.758;2023-06-01T07:27:55;7.28;;;3.03;;
78372;SDS011;67656;52.074;4.758;2023-06-01T07:32:56;8.60;;;3.10;;
78372;SDS011;67656;52.074;4.758;2023-06-01T07:37:59;7.68;;;2.80;;
78372;SDS011;67656;52.074;4.758;2023-06-01T07:43:21;7.70;;;2.90;;
78372;SDS011;67656;52.074;4.758;2023-06-01T07:48:27;7.93;;;3.25;;
78372;SDS011;67656;52.074;4.758;2023-06-01T07:58:44;6.38;;;2.85;;
78372;SDS011;67656;52.074;4.758;2023-06-01T08:03:51;6.07;;;2.60;;
78372;SDS011;67656;52.074;4.758;2023-06-01T08:08:54;6.95;;;2.72;;
78372;SDS011;67656;52.074;4.758;2023-06-01T08:14:06;8.00;;;2.75;;
78372;SDS011;67656;52.074;4.758;2023-06-01T08:19:12;6.65;;;2.72;;
78372;SDS011;67656;52.074;4.758;2023-06-01T08:24:12;5.75;;;2.50;;
78372;SDS011;67656;52.074;4.758;2023-06-01T08:29:13;7.05;;;2.42;;
78372;SDS011;67656;52.074;4.758;2023-06-01T08:34:13;8.82;;;2.60;;
78372;SDS011;67656;52.074;4.758;2023-06-01T08:39:23;6.30;;;2.65;;
78372;SDS011;67656;52.074;4.758;2023-06-01T08:44:26;5.03;;;2.63;;
78372;SDS011;67656;52.074;4.758;2023-06-01T08:49:34;7.10;;;2.80;;
78372;SDS011;67656;52.074;4.758;2023-06-01T08:54:35;6.28;;;2.30;;
78372;SDS011;67656;52.074;4.758;2023-06-01T08:59:38;10.75;;;2.53;;
78372;SDS011;67656;52.074;4.758;2023-06-01T09:04:39;6.93;;;2.45;;
78372;SDS011;67656;52.074;4.758;2023-06-01T09:09:40;8.52;;;2.90;;
78372;SDS011;67656;52.074;4.758;2023-06-01T09:14:41;6.30;;;2.55;;
78372;SDS011;67656;52.074;4.758;2023-06-01T09:19:42;5.60;;;2.75;;
78372;SDS011;67656;52.074;4.758;2023-06-01T09:24:54;7.10;;;3.05;;
78372;SDS011;67656;52.074;4.758;2023-06-01T09:29:58;5.70;;;2.95;;
78372;SDS011;67656;52.074;4.758;2023-06-01T09:34:59;7.15;;;2.72;;
78372;SDS011;67656;52.074;4.758;2023-06-01T09:40:19;12.93;;;2.95;;
78372;SDS011;67656;52.074;4.758;2023-06-01T09:45:21;7.85;;;3.25;;
78372;SDS011;67656;52.074;4.758;2023-06-01T09:50:37;7.93;;;3.00;;
78372;SDS011;67656;52.074;4.758;2023-06-01T09:55:58;5.40;;;2.75;;
78372;SDS011;67656;52.074;4.758;2023-06-01T10:01:00;7.50;;;2.83;;
78372;SDS011;67656;52.074;4.758;2023-06-01T10:06:01;7.90;;;3.13;;
78372;SDS011;67656;52.074;4.758;2023-06-01T10:11:05;7.50;;;3.08;;
78372;SDS011;67656;52.074;4.758;2023-06-01T10:16:07;6.63;;;3.35;;
78372;SDS011;67656;52.074;4.758;2023-06-01T10:21:10;5.78;;;2.88;;
78372;SDS011;67656;52.074;4.758;2023-06-01T10:26:20;7.65;;;3.22;;
78372;SDS011;67656;52.074;4.758;2023-06-01T10:31:42;7.35;;;2.90;;
78372;SDS011;67656;52.074;4.758;2023-06-01T10:41:55;5.43;;;3.10;;
78372;SDS011;67656;52.074;4.758;2023-06-01T10:47:01;8.50;;;2.85;;
78372;SDS011;67656;52.074;4.758;2023-06-01T10:57:27;9.50;;;3.33;;
78372;SDS011;67656;52.074;4.758;2023-06-01T11:02:27;7.78;;;2.80;;
78372;SDS011;67656;52.074;4.758;2023-06-01T11:07:34;7.43;;;3.28;;
78372;SDS011;67656;52.074;4.758;2023-06-01T11:23:54;9.13;;;3.45;;
78372;SDS011;67656;52.074;4.758;2023-06-01T11:29:04;7.55;;;3.30;;
78372;SDS011;67656;52.074;4.758;2023-06-01T11:34:07;7.10;;;3.40;;
78372;SDS011;67656;52.074;4.758;2023-06-01T11:39:21;9.50;;;3.58;;
78372;SDS011;67656;52.074;4.758;2023-06-01T11:44:26;8.35;;;3.63;;
78372;SDS011;67656;52.074;4.758;2023-06-01T11:49:28;11.65;;;3.60;;
78372;SDS011;67656;52.074;4.758;2023-06-01T11:54:29;12.40;;;3.90;;
78372;SDS011;67656;52.074;4.758;2023-06-01T11:59:43;6.23;;;3.70;;
78372;SDS011;67656;52.074;4.758;2023-06-01T12:10:20;6.68;;;3.20;;
78372;SDS011;67656;52.074;4.758;2023-06-01T12:15:21;6.85;;;3.28;;
78372;SDS011;67656;52.074;4.758;2023-06-01T12:20:29;7.80;;;3.40;;
78372;SDS011;67656;52.074;4.758;2023-06-01T12:25:30;8.23;;;3.25;;
78372;SDS011;67656;52.074;4.758;2023-06-01T12:30:33;7.03;;;3.00;;
78372;SDS011;67656;52.074;4.758;2023-06-01T12:35:46;10.93;;;3.58;;
78372;SDS011;67656;52.074;4.758;2023-06-01T12:40:50;7.85;;;2.80;;
78372;SDS011;67656;52.074;4.758;2023-06-01T12:46:06;5.28;;;2.40;;
78372;SDS011;67656;52.074;4.758;2023-06-01T12:51:06;4.28;;;2.40;;
78372;SDS011;67656;52.074;4.758;2023-06-01T12:56:06;5.35;;;2.10;;
78372;SDS011;67656;52.074;4.758;2023-06-01T13:01:07;4.50;;;2.40;;
78372;SDS011;67656;52.074;4.758;2023-06-01T13:06:07;6.03;;;2.40;;
78372;SDS011;67656;52.074;4.758;2023-06-01T13:11:08;4.25;;;2.10;;
78372;SDS011;67656;52.074;4.758;2023-06-01T13:16:09;3.85;;;2.15;;
78372;SDS011;67656;52.074;4.758;2023-06-01T13:21:09;4.60;;;2.33;;
78372;SDS011;67656;52.074;4.758;2023-06-01T13:26:10;4.88;;;2.45;;
78372;SDS011;67656;52.074;4.758;2023-06-01T13:31:10;5.00;;;2.60;;
78372;SDS011;67656;52.074;4.758;2023-06-01T13:36:11;5.50;;;2.38;;
78372;SDS011;67656;52.074;4.758;2023-06-01T13:41:11;3.38;;;2.33;;
78372;SDS011;67656;52.074;4.758;2023-06-01T13:46:11;2.92;;;2.00;;
78372;SDS011;67656;52.074;4.758;2023-06-01T13:51:12;3.03;;;2.03;;
78372;SDS011;67656;52.074;4.758;2023-06-01T13:56:12;7.78;;;2.10;;
78372;SDS011;67656;52.074;4.758;2023-06-01T14:01:18;2.80;;;1.88;;
78372;SDS011;67656;52.074;4.758;2023-06-01T14:11:19;3.15;;;2.10;;
78372;SDS011;67656;52.074;4.758;2023-06-01T14:16:20;2.78;;;1.90;;
78372;SDS011;67656;52.074;4.758;2023-06-01T14:21:20;3.22;;;1.75;;
78372;SDS011;67656;52.074;4.758;2023-06-01T14:26:21;3.42;;;2.20;;
78372;SDS011;67656;52.074;4.758;2023-06-01T14:31:21;5.75;;;2.00;;
78372;SDS011;67656;52.074;4.758;2023-06-01T14:36:22;3.10;;;2.40;;
78372;SDS011;67656;52.074;4.758;2023-06-01T14:41:22;3.22;;;2.10;;
78372;SDS011;67656;52.074;4.758;2023-06-01T14:46:22;3.45;;;2.00;;
78372;SDS011;67656;52.074;4.758;2023-06-01T14:51:32;5.75;;;2.05;;
78372;SDS011;67656;52.074;4.758;2023-06-01T14:56:32;5.43;;;2.40;;
78372;SDS011;67656;52.074;4.758;2023-06-01T15:01:33;8.40;;;2.65;;
78372;SDS011;67656;52.074;4.758;2023-06-01T15:06:33;8.13;;;3.03;;
78372;SDS011;67656;52.074;4.758;2023-06-01T15:11:34;9.75;;;3.42;;
78372;SDS011;67656;52.074;4.758;2023-06-01T15:16:34;7.10;;;2.78;;
78372;SDS011;67656;52.074;4.758;2023-06-01T15:21:35;5.63;;;2.30;;
78372;SDS011;67656;52.074;4.758;2023-06-01T15:26:35;6.72;;;2.60;;
78372;SDS011;67656;52.074;4.758;2023-06-01T15:31:36;7.85;;;3.90;;
78372;SDS011;67656;52.074;4.758;2023-06-01T15:36:36;7.72;;;3.42;;
78372;SDS011;67656;52.074;4.758;2023-06-01T15:41:36;5.57;;;2.17;;
78372;SDS011;67656;52.074;4.758;2023-06-01T15:46:39;6.40;;;2.60;;
78372;SDS011;67656;52.074;4.758;2023-06-01T15:51:40;3.58;;;2.00;;
78372;SDS011;67656;52.074;4.758;2023-06-01T15:56:42;5.00;;;1.98;;
78372;SDS011;67656;52.074;4.758;2023-06-01T16:01:45;5.07;;;2.08;;
78372;SDS011;67656;52.074;4.758;2023-06-01T16:06:45;4.38;;;1.98;;
78372;SDS011;67656;52.074;4.758;2023-06-01T16:11:46;6.50;;;2.20;;
78372;SDS011;67656;52.074;4.758;2023-06-01T16:16:46;3.88;;;1.95;;
78372;SDS011;67656;52.074;4.758;2023-06-01T16:21:47;4.05;;;1.80;;
78372;SDS011;67656;52.074;4.758;2023-06-01T16:26:47;3.60;;;2.03;;
78372;SDS011;67656;52.074;4.758;2023-06-01T16:31:48;5.18;;;1.77;;
78372;SDS011;67656;52.074;4.758;2023-06-01T16:36:48;5.18;;;1.77;;
78372;SDS011;67656;52.074;4.758;2023-06-01T16:41:49;4.50;;;1.73;;
78372;SDS011;67656;52.074;4.758;2023-06-01T16:46:50;3.78;;;2.17;;
78372;SDS011;67656;52.074;4.758;2023-06-01T16:51:50;3.58;;;1.90;;
78372;SDS011;67656;52.074;4.758;2023-06-01T16:56:51;4.50;;;1.90;;
78372;SDS011;67656;52.074;4.758;2023-06-01T17:01:52;6.93;;;1.88;;
78372;SDS011;67656;52.074;4.758;2023-06-01T17:06:52;6.60;;;2.40;;
78372;SDS011;67656;52.074;4.758;2023-06-01T17:11:58;4.65;;;2.25;;
78372;SDS011;67656;52.074;4.758;2023-06-01T17:16:59;6.28;;;2.00;;
78372;SDS011;67656;52.074;4.758;2023-06-01T17:22:02;5.75;;;2.30;;
78372;SDS011;67656;52.074;4.758;2023-06-01T17:27:03;7.30;;;2.75;;
78372;SDS011;67656;52.074;4.758;2023-06-01T17:32:04;7.53;;;2.70;;
78372;SDS011;67656;52.074;4.758;2023-06-01T17:37:04;8.10;;;2.80;;
78372;SDS011;67656;52.074;4.758;2023-06-01T17:42:08;8.52;;;3.20;;
78372;SDS011;67656;52.074;4.758;2023-06-01T17:47:09;7.95;;;2.80;;
78372;SDS011;67656;52.074;4.758;2023-06-01T17:52:09;6.43;;;2.40;;
78372;SDS011;67656;52.074;4.758;2023-06-01T17:57:15;6.57;;;2.30;;
78372;SDS011;67656;52.074;4.758;2023-06-01T18:02:18;7.50;;;2.45;;
78372;SDS011;67656;52.074;4.758;2023-06-01T18:07:21;7.60;;;2.63;;
78372;SDS011;67656;52.074;4.758;2023-06-01T18:12:22;5.18;;;2.30;;
78372;SDS011;67656;52.074;4.758;2023-06-01T18:17:23;7.10;;;2.42;;
78372;SDS011;67656;52.074;4.758;2023-06-01T18:22:23;5.25;;;2.00;;
78372;SDS011;67656;52.074;4.758;2023-06-01T18:27:24;4.97;;;2.38;;
78372;SDS011;67656;52.074;4.758;2023-06-01T18:32:27;4.38;;;1.52;;
78372;SDS011;67656;52.074;4.758;2023-06-01T18:37:28;4.78;;;1.73;;
78372;SDS011;67656;52.074;4.758;2023-06-01T18:42:28;3.78;;;1.60;;
78372;SDS011;67656;52.074;4.758;2023-06-01T18:47:32;3.05;;;1.40;;
78372;SDS011;67656;52.074;4.758;2023-06-01T18:52:51;4.82;;;1.45;;
78372;SDS011;67656;52.074;4.758;2023-06-01T19:03:58;3.47;;;1.30;;
78372;SDS011;67656;52.074;4.758;2023-06-01T19:14:45;2.42;;;1.25;;
78372;SDS011;67656;52.074;4.758;2023-06-01T19:20:56;5.13;;;1.50;;
78372;SDS011;67656;52.074;4.758;2023-06-01T19:32:36;3.78;;;1.30;;
78372;SDS011;67656;52.074;4.758;2023-06-01T19:37:38;3.90;;;1.50;;
78372;SDS011;67656;52.074;4.758;2023-06-01T19:42:44;3.97;;;1.70;;
78372;SDS011;67656;52.074;4.758;2023-06-01T20:00:06;2.75;;;1.30;;
78372;SDS011;67656;52.074;4.758;2023-06-01T20:05:18;4.07;;;1.52;;
78372;SDS011;67656;52.074;4.758;2023-06-01T20:10:31;3.20;;;1.40;;
78372;SDS011;67656;52.074;4.758;2023-06-01T20:15:45;5.85;;;1.45;;
78372;SDS011;67656;52.074;4.758;2023-06-01T20:39:55;2.47;;;1.40;;
78372;SDS011;67656;52.074;4.758;2023-06-01T20:50:59;7.03;;;2.03;;
78372;SDS011;67656;52.074;4.758;2023-06-01T20:56:02;3.03;;;1.30;;
78372;SDS011;67656;52.074;4.758;2023-06-01T21:01:03;5.20;;;1.65;;
78372;SDS011;67656;52.074;4.758;2023-06-01T21:06:04;5.05;;;1.60;;
78372;SDS011;67656;52.074;4.758;2023-06-01T21:11:04;6.22;;;1.63;;
78372;SDS011;67656;52.074;4.758;2023-06-01T21:16:06;11.00;;;1.80;;
78372;SDS011;67656;52.074;4.758;2023-06-01T21:21:07;5.10;;;1.65;;
78372;SDS011;67656;52.074;4.758;2023-06-01T21:26:08;3.10;;;1.58;;
78372;SDS011;67656;52.074;4.758;2023-06-01T21:31:12;8.80;;;2.33;;
78372;SDS011;67656;52.074;4.758;2023-06-01T21:36:13;5.40;;;2.00;;
78372;SDS011;67656;52.074;4.758;2023-06-01T21:41:19;4.90;;;1.83;;
78372;SDS011;67656;52.074;4.758;2023-06-01T21:46:19;6.32;;;1.95;;
78372;SDS011;67656;52.074;4.758;2023-06-01T21:51:21;8.15;;;1.80;;
78372;SDS011;67656;52.074;4.758;2023-06-01T21:56:21;7.65;;;1.80;;
78372;SDS011;67656;52.074;4.758;2023-06-01T22:01:26;5.35;;;2.08;;
78372;SDS011;67656;52.074;4.758;2023-06-01T22:06:30;9.18;;;2.22;;
78372;SDS011;67656;52.074;4.758;2023-06-01T22:11:36;6.90;;;1.90;;
78372;SDS011;67656;52.074;4.758;2023-06-01T22:16:41;6.35;;;1.92;;
78372;SDS011;67656;52.074;4.758;2023-06-01T22:26:43;6.05;;;2.05;;
78372;SDS011;67656;52.074;4.758;2023-06-01T22:31:46;8.48;;;2.63;;
78372;SDS011;67656;52.074;4.758;2023-06-01T22:36:46;9.73;;;2.00;;
78372;SDS011;67656;52.074;4.758;2023-06-01T22:41:47;4.78;;;2.40;;
78372;SDS011;67656;52.074;4.758;2023-06-01T22:46:47;7.60;;;2.00;;
78372;SDS011;67656;52.074;4.758;2023-06-01T22:51:48;9.07;;;2.10;;
78372;SDS011;67656;52.074;4.758;2023-06-01T22:56:48;7.72;;;2.10;;
78372;SDS011;67656;52.074;4.758;2023-06-01T23:01:49;9.50;;;2.13;;
78372;SDS011;67656;52.074;4.758;2023-06-01T23:06:50;6.15;;;2.45;;
78372;SDS011;67656;52.074;4.758;2023-06-01T23:11:50;6.97;;;2.20;;
78372;SDS011;67656;52.074;4.758;2023-06-01T23:16:52;7.50;;;1.95;;
78372;SDS011;67656;52.074;4.758;2023-06-01T23:21:53;9.43;;;1.90;;
78372;SDS011;67656;52.074;4.758;2023-06-01T23:26:54;13.10;;;2.08;;
78372;SDS011;67656;52.074;4.758;2023-06-01T23:31:54;7.78;;;2.10;;
78372;SDS011;67656;52.074;4.758;2023-06-01T23:36:57;9.43;;;2.13;;
78372;SDS011;67656;52.074;4.758;2023-06-01T23:41:58;8.75;;;2.03;;
78372;SDS011;67656;52.074;4.758;2023-06-01T23:46:58;9.35;;;2.65;;
78372;SDS011;67656;52.074;4.758;2023-06-01T23:51:59;15.93;;;2.50;;
78372;SDS011;67656;52.074;4.758;2023-06-01T23:56:59;8.88;;;2.05;;
